Overview Statistics Trail Chart Weather Telemetry Raw packets
 

This is the latest recevied weather packets stored in our database for station/object WD7OO. If no packets are shown the sender has not sent any weather packets the latest 10 day(s).

<< 51 52 53 54 55 56 57 >>
Time Temp. Humidity Pressure Rain* Wind** Luminosity Snow
1788277364 28.89° C 79% 1016.6 hPa 0 mm - 725 W/m² -
1788277060 28.33° C 82% 1016.5 hPa 0 mm - 658 W/m² -
1788276759 28.33° C 80% 1016.7 hPa 0 mm - 681 W/m² -
1788276458 28.33° C 81% 1016.6 hPa 0 mm - 616 W/m² -
1788276157 27.78° C 81% 1016.3 hPa 0 mm - 613 W/m² -
1788275852 27.78° C 83% 1016.6 hPa 0 mm - 431 W/m² -
1788275547 27.22° C 83% 1016.5 hPa 0 mm - 559 W/m² -
1788275247 27.22° C 83% 1016.3 hPa 0 mm - 586 W/m² -
1788274945 27.22° C 82% 1016.6 hPa 0 mm - 616 W/m² -
1788274643 26.67° C 84% 1016.6 hPa 0 mm - 562 W/m² -
1788274343 26.11° C 85% 1016.5 hPa 0 mm - 174 W/m² -
1788274038 25.56° C 87% 1016.6 hPa 0 mm - 383 W/m² -
1788273733 25.56° C 88% 1016.8 hPa 0 mm - 135 W/m² -
1788273428 25.56° C 87% 1016.4 hPa 0 mm - 108 W/m² -
1788273125 25.56° C 89% 1016.6 hPa 0 mm - 126 W/m² -
1788272821 25.56° C 89% 1016.6 hPa 0 mm - 121 W/m² -
1788272520 25.56° C 89% 1016.6 hPa 0 mm - 100 W/m² -
1788272215 26.11° C 88% 1016.5 hPa 0 mm - 92 W/m² -
1788271915 26.11° C 87% 1016.4 hPa 0 mm - 151 W/m² -
1788271614 26.11° C 87% 1016.4 hPa 0 mm - 146 W/m² -
1788271313 26.11° C 88% 1016.5 hPa 0 mm - 160 W/m² -
1788271008 26.11° C 87% 1016.5 hPa 0 mm - 131 W/m² -
1788270703 26.11° C 87% 1016.6 hPa 0 mm - 130 W/m² -
1788270398 26.11° C 88% 1016.5 hPa 0 mm - 143 W/m² -
1788270094 26.67° C 86% 1016.3 hPa 0 mm - 160 W/m² -

* Rain latest hour (hover to see other rain measurements)
** Current wind speed in m/s (hover to see current wind gust speed)